Startpagina
METAR-TAF:

METAR-TAF

Vliegvelden :

Middleton Island, Alaska, Verenigde Staten

breedte: 59-26N, lengte: 146-18W, hoogte: 27 m

Actueel weer

Dit bericht is 34 minuten geleden gemaakt, om 17:14 UTC
Wind 10 kt uit het oosten
Temperatuur 3°C
Vochtigheid 93%
Druk 1016 hPa
Zicht: 16.1 km
Gebroken wolken op 1000 ft
Geheel bewolkt op 1300 ft

METAR: PAMD 251714Z AUTO 09010KT 10SM BKN010 OVC013 03/02 A2999 RMK AO2 CIG 007V012

Tijdstip: 09:48 (17:48 UTC)


TAF: ontbreekt

Waarnemingen en weersverwachtingen van meer dan 4000 vliegvelden (METAR en TAF).

De beschikbare stations zijn de gele en rode punten op de kaart.

Ga met uw muis naar het station om de naam te zien.

Klik dan om waarnemingen en weersverwachtingen te zien.

kaart wijzigen: klik op de groene knoppen met een zwart kruis om in te zoomen, op de groene knop met een streepje om uit te zoomen of op de groene pijlen voor aangrenzende kaarten.


METAR-TAF: